To NAV CANADA Home Page Login to a new session Search on AWWS site Feedback and Comments Disclaimer Vers la page française équivalente Tips FAQ What's new on the site To the Forecasts and Observations / NOTAM section To "File a Flight Plan" website Publications and other links Update of the User's profile FIC Telephone Numbers My Weather Data Folder Route Weather Data Regional Weather Data Local Weather Data To the Forecasts and Observations / NOTAM section
Request Generated 03/01/2015 at 20:51:20 UTC . Weather information available at that time is displayed.

METAR/TAF

EARLTON/EARLTON (TIMISKAMING REGIONAL)/ON    (show WxCam)

SPECI CYXR 012042Z AUTO 20016G21KT 9SM -SN SCT033 OVC044 M06/M10
A3003 RMK ICG PAST HR SLP190=
SPECI CYXR 012036Z AUTO 20017KT 9SM -SNRA BKN033 OVC044 M06/M10 A3003
RMK ICG PAST HR SLP190=
SPECI CYXR 012035Z AUTO 20016KT 9SM -SN -FZRA BKN033 OVC044 M06/M10
A3003 RMK ICG PAST HR SLP191=
SPECI CYXR 012032Z AUTO 20018G23KT 9SM -SN -FZRA BKN033 OVC044
M06/M10 A3003 RMK ICG INTMT SLP190=
SPECI CYXR 012024Z AUTO 20019KT 9SM -SN BKN035 OVC042 M06/M10 A3003
RMK ICG INTMT SLP190=
SPECI CYXR 012015Z AUTO 20015G21KT 9SM OVC035 M06/M11 A3004 RMK ICG
SLP192=
METAR CYXR 012000Z AUTO 20017G22KT 9SM OVC037 M06/M11 A3004 RMK
SLP194=
METAR CYXR 011900Z AUTO 21018KT 9SM FEW037 BKN070 BKN089 M06/M12
A3008 RMK SLP205=
METAR CYXR 011800Z AUTO 20017KT 9SM FEW031 OVC060 M07/M12 A3011 RMK
SLP217=

TAF AMD CYXR 012035Z 0120/0201 20010G20KT P6SM SCT020 BKN060 TEMPO
0120/0201 3SM -SN BKN020
RMK FCST BASED ON AUTO OBS.
RMK AUTO OBS REPG NON-REPRESENTATIVE PCPN TYPE. NXT FCST WILL BE
ISSUED AT 021245Z=
Your time UTC time
Weather data provided by Environment Canada and NAV CANADA